Nearby METAR Reports

 

KPMP - Pompano Beach, Florida, USA
Distance from station: NNW 3mi, 5km
Updated: 11/12/2019 5:53pm
Partly cloudy
Partly cloudy
 Wind from SSE
Wind: SSE 7 mph , 11 km/h
Temperature: 81°F , 27°C
Heat Index: 84°F , 29°C
Dew Point: 68°F , 20°C
Humidity: 66%
Barometer: 29.89 inHg , 1012.2 hPa
Clouds: Partly cloudy
Visibility: 10 miles , 16 km
Cloud details: Partly cloudy 3000 ft
2019/11/12 22:53 KPMP 122253Z 16006KT 10SM SCT030 27/20 A2989 RMK AO2 SLP121 T02670200 $
KFXE - Ft Lauderd/Exec, Florida, USA
Distance from station: W 6mi, 9km
Updated: 11/12/2019 5:53pm
Few Clouds
Few Clouds
 Wind from SSE
Wind: SSE 6 mph , 9 km/h
Temperature: 79°F , 26°C
Dew Point: 68°F , 20°C
Humidity: 70%
Barometer: 29.89 inHg , 1012.2 hPa
Clouds: Few Clouds
Visibility: 10 miles , 16 km
Cloud details: Few Clouds 6000 ft
2019/11/12 22:53 KFXE 122253Z 15005KT 10SM FEW060 26/20 A2989 RMK AO2 SLP123 T02610200
 
KFLL - Ft Lauderd/Holly, Florida, USA
Distance from station: SSW 11mi, 17km
Updated: 11/12/2019 5:53pm
Mostly cloudy
Mostly cloudy
 Wind from S
Wind: S 6 mph , 9 km/h
Temperature: 79°F , 26°C
Dew Point: 68°F , 20°C
Humidity: 70%
Barometer: 29.88 inHg , 1011.9 hPa
Clouds: Mostly cloudy
Visibility: 10 miles , 16 km
Cloud details: Few Clouds 3500 ft
Few Clouds 5000 ft
Mostly cloudy 25000 ft
2019/11/12 22:53 KFLL 122253Z 17005KT 10SM FEW035 FEW050 BKN250 26/20 A2988 RMK AO2 SLP119 T02610200
KBCT - Boca Raton, Florida, USA
Distance from station: N 12mi, 19km
Updated: 11/12/2019 5:47pm
Partly cloudy
Partly cloudy
 Wind from SE
Wind: SE 5 mph , 7 km/h
Temperature: 79°F , 26°C
Dew Point: 68°F , 20°C
Humidity: 70%
Barometer: 29.89 inHg , 1012.2 hPa
Clouds: Partly cloudy
Visibility: 10 miles , 16 km
Cloud details: Partly cloudy 4000 ft
2019/11/12 22:47 KBCT 122247Z 14004KT 10SM SCT040 26/20 A2989
 
KHWO - Hollywood, Florida, USA
Distance from station: SSW 17mi, 27km
Updated: 11/12/2019 5:53pm
Clear
Clear
 Wind from SSE
Wind: SSE 8 mph , 13 km/h
Temperature: 81°F , 27°C
Heat Index: 83°F , 28°C
Dew Point: 66°F , 19°C
Humidity: 62%
Barometer: 29.90 inHg , 1012.5 hPa
Clouds: Clear
Visibility: 10 miles , 16 km
2019/11/12 22:53 KHWO 122253Z 15007KT 10SM CLR 27/19 A2990 RMK AO2 SLP126 T02670189
KOPF - Miami/Opa Locka, Florida, USA
Distance from station: SSW 24mi, 38km
Updated: 11/12/2019 5:53pm
Partly cloudy
Partly cloudy
 Wind from SSE
Wind: SSE 6 mph , 9 km/h
Temperature: 81°F , 27°C
Heat Index: 84°F , 29°C
Dew Point: 68°F , 20°C
Humidity: 66%
Barometer: 29.90 inHg , 1012.5 hPa
Clouds: Partly cloudy
Visibility: 10 miles , 16 km
Cloud details: Partly cloudy 6000 ft
2019/11/12 22:53 KOPF 122253Z 16005KT 10SM SCT060 27/20 A2990 RMK AO2 SLP125 T02670200
 
KMIA - Miami, Florida, USA
Distance from station: SSW 31mi, 50km
Updated: 11/12/2019 5:53pm
Mostly cloudy
Mostly cloudy
 Wind from S
Wind: S 7 mph , 11 km/h
Temperature: 81°F , 27°C
Heat Index: 83°F , 28°C
Dew Point: 66°F , 19°C
Humidity: 62%
Barometer: 29.89 inHg , 1012.2 hPa
Clouds: Mostly cloudy
Visibility: 10 miles , 16 km
Cloud details: Partly cloudy 5500 ft
Mostly cloudy 25000 ft
2019/11/12 22:53 KMIA 122253Z 17006KT 10SM SCT055 BKN250 27/19 A2989 RMK AO2 SLP123 T02670189
KPBI - West Palm Beach, Florida, USA
Distance from station: N 33mi, 52km
Updated: 11/12/2019 5:53pm
Mostly cloudy
Mostly cloudy
 Wind from NNW
Wind: NNW 7 mph , 11 km/h
Temperature: 81°F , 27°C
Heat Index: 83°F , 28°C
Dew Point: 66°F , 19°C
Humidity: 62%
Barometer: 29.90 inHg , 1012.5 hPa
Clouds: Mostly cloudy
Visibility: 10 miles , 16 km
Cloud details: Partly cloudy 4000 ft
Partly cloudy 5000 ft
Mostly cloudy 25000 ft
2019/11/12 22:53 KPBI 122253Z 33006KT 10SM SCT040 SCT050 BKN250 27/19 A2990 RMK AO2 SLP124 T02670189
 
KTMB - Miami/Tamiami, Florida, USA
Distance from station: SSW 44mi, 71km
Updated: 11/12/2019 5:53pm
Mostly cloudy
Mostly cloudy
 Wind from SSE
Wind: SSE 7 mph , 11 km/h
Temperature: 81°F , 27°C
Heat Index: 85°F , 29°C
Dew Point: 70°F , 21°C
Humidity: 70%
Barometer: 29.89 inHg , 1012.2 hPa
Clouds: Mostly cloudy
Visibility: 10 miles , 16 km
Cloud details: Mostly cloudy 6500 ft
2019/11/12 22:53 KTMB 122253Z 15006KT 10SM BKN065 27/21 A2989 RMK AO2 SLP121 T02670206